Weather reports worldwide

Advertisment
San Fernando, Spain (8453): temperature & dewpoint: 17.05.2019 14:00:00 - 23.05.2019 14:00:00 (CEST)San Fernando, Spain (8453): wind speed & gusts: 17.05.2019 14:00:00 - 23.05.2019 14:00:00 (CEST)San Fernando, Spain (8453): wind direction: 17.05.2019 14:00:00 - 23.05.2019 14:00:00 (CEST)San Fernando, Spain (8453): reduced air pressure: 17.05.2019 14:00:00 - 23.05.2019 14:00:00 (CEST)San Fernando, Spain (8453): precipitation: 17.05.2019 14:00:00 - 23.05.2019 14:00:00 (CEST)
Date & Time tt [°C] td [°C] ff [km/h] ff [kn] fx [km/h] fx [kn] dd ppp [hPa] rr [mm]
23.05.2019 14:00:00 - - - - - - - - -
23.05.2019 13:00:00 25,5 13,4 13 7 19 10 WNW 1017,1 0,0
23.05.2019 12:00:00 25,1 11,7 9 5 14 8 WNW 1017,1 0,0
23.05.2019 11:00:00 27,1 9,4 5 3 13 7 E 1017,1 0,0
23.05.2019 10:00:00 23,0 12,3 4 2 12 7 N 1017,2 0,0
23.05.2019 09:00:00 20,0 12,0 6 3 16 8 E 1016,8 0,0
23.05.2019 08:00:00 17,7 11,0 8 4 17 9 ESE 1016,5 -
23.05.2019 07:00:00 17,8 11,1 12 7 18 10 E 1016,2 0,0
23.05.2019 06:00:00 18,1 10,6 10 5 18 10 E 1016,4 0,0
23.05.2019 05:00:00 17,4 10,5 9 5 21 12 E 1016,6 0,0
23.05.2019 04:00:00 18,5 10,5 11 6 19 10 ENE 1016,6 0,0
23.05.2019 03:00:00 19,0 10,5 11 6 20 11 ENE 1016,8 0,0
23.05.2019 02:00:00 19,0 10,5 6 3 14 8 E 1017,3 -
23.05.2019 01:00:00 19,4 10,9 6 3 11 6 ESE 1017,3 0,0
23.05.2019 00:00:00 19,6 12,8 4 2 13 7 E 1017,2 0,0
22.05.2019 23:00:00 20,1 15,5 2 1 9 5 N 1016,7 0,0
22.05.2019 22:00:00 20,0 15,9 1 1 13 7 N 1016,4 0,0
22.05.2019 21:00:00 20,5 16,6 9 5 19 11 WNW 1016,1 0,0
22.05.2019 20:00:00 21,1 16,5 16 9 22 12 W 1015,7 -
22.05.2019 19:00:00 22,0 16,3 16 8 24 13 W 1015,8 0,0
22.05.2019 18:00:00 22,6 16,6 14 8 24 13 W 1015,9 0,0
22.05.2019 17:00:00 23,3 17,3 16 9 23 13 W 1016,0 0,0
22.05.2019 16:00:00 22,3 16,8 16 9 27 14 W 1016,2 0,0
22.05.2019 15:00:00 23,6 15,6 15 8 23 13 W 1016,4 0,0
22.05.2019 14:00:00 23,3 15,3 15 8 22 12 W 1016,7 -
22.05.2019 13:00:00 23,1 14,9 10 5 18 10 WSW 1016,7 0,0
22.05.2019 12:00:00 26,4 14,1 7 4 21 11 SE 1016,7 0,0
22.05.2019 11:00:00 24,2 13,8 9 5 24 13 SE 1016,6 0,0
22.05.2019 10:00:00 21,2 14,6 8 4 19 10 ESE 1016,5 0,0
22.05.2019 09:00:00 17,5 13,9 6 3 18 10 ESE 1016,1 0,0
22.05.2019 08:00:00 15,6 13,3 6 4 16 9 SE 1015,9 -
22.05.2019 07:00:00 15,3 13,9 7 4 14 8 ESE 1015,2 0,0
22.05.2019 06:00:00 15,7 14,0 3 2 11 6 SSE 1015,2 0,0
22.05.2019 05:00:00 15,9 14,0 7 4 18 10 ESE 1015,6 0,0
22.05.2019 04:00:00 16,1 14,1 8 4 15 8 SE 1015,8 0,0
22.05.2019 03:00:00 16,8 14,4 5 3 10 6 ESE 1015,8 0,0
22.05.2019 02:00:00 18,3 15,3 2 1 6 3 WSW 1015,9 -
22.05.2019 01:00:00 18,3 15,7 4 2 11 6 NW 1015,9 0,0
22.05.2019 00:00:00 18,5 16,0 4 2 11 6 WNW 1016,2 0,0
21.05.2019 23:00:00 18,7 15,8 8 4 18 10 W 1015,9 0,0
21.05.2019 22:00:00 18,8 15,9 13 7 22 12 W 1015,4 0,0
21.05.2019 21:00:00 19,4 15,4 14 8 30 16 W 1015,1 0,0
21.05.2019 20:00:00 20,2 15,2 17 9 31 17 W 1014,8 -
21.05.2019 19:00:00 20,4 15,4 17 9 27 15 W 1014,6 0,0
21.05.2019 18:00:00 21,1 15,4 15 8 29 16 W 1014,9 0,0
21.05.2019 17:00:00 20,5 14,8 19 10 31 17 W 1015,2 0,0
21.05.2019 16:00:00 19,8 14,4 20 11 32 17 WNW 1015,6 0,0
21.05.2019 15:00:00 19,8 14,1 18 10 29 16 W 1015,7 0,0
21.05.2019 14:00:00 19,5 13,3 15 8 26 14 W 1015,9 -
21.05.2019 13:00:00 19,6 13,3 14 8 23 12 W 1015,9 0,0
21.05.2019 12:00:00 19,8 13,9 9 5 21 11 W 1015,8 0,0
21.05.2019 11:00:00 19,6 12,8 5 3 13 7 W 1015,8 0,0
21.05.2019 10:00:00 19,0 13,4 2 1 14 8 NNW 1015,5 0,0
21.05.2019 09:00:00 17,6 13,6 7 4 14 8 NNW 1015,3 0,0
21.05.2019 08:00:00 17,0 13,6 6 3 12 6 NNW 1015,0 -
21.05.2019 07:00:00 17,0 13,6 4 2 16 9 N 1014,3 0,0
21.05.2019 06:00:00 17,5 13,5 6 3 14 8 NNW 1014,1 0,0
21.05.2019 05:00:00 17,8 13,4 8 5 17 9 NW 1014,1 0,0
21.05.2019 04:00:00 18,3 13,4 8 5 21 11 NNW 1014,1 0,0
21.05.2019 03:00:00 18,7 13,8 9 5 16 9 NNW 1014,1 0,0
21.05.2019 02:00:00 18,9 15,2 7 4 19 10 NW 1014,5 -
21.05.2019 01:00:00 18,3 15,7 10 5 19 10 W 1014,4 0,0
21.05.2019 00:00:00 18,2 15,3 11 6 21 11 W 1014,5 0,0
20.05.2019 23:00:00 18,4 14,5 14 7 23 12 W 1014,4 0,0
20.05.2019 22:00:00 18,6 13,9 12 7 24 13 W 1013,7 0,0
20.05.2019 21:00:00 19,0 12,2 18 10 31 17 W 1013,4 0,0
20.05.2019 20:00:00 20,5 14,6 20 11 34 18 W 1013,2 -
20.05.2019 19:00:00 21,3 8,3 19 10 29 16 W 1013,3 0,0
20.05.2019 18:00:00 22,2 7,6 19 11 27 15 W 1013,2 0,0
20.05.2019 17:00:00 21,4 8,3 16 9 28 15 W 1013,6 0,0
20.05.2019 16:00:00 20,9 10,6 21 11 29 16 W 1014,2 0,0
20.05.2019 15:00:00 20,6 11,6 16 9 26 14 W 1014,3 0,0
20.05.2019 14:00:00 19,7 11,4 14 8 25 13 W 1014,6 -
20.05.2019 13:00:00 19,6 13,3 13 7 23 12 W 1014,4 0,0
20.05.2019 12:00:00 19,5 13,9 12 6 23 12 W 1014,4 0,0
20.05.2019 11:00:00 19,2 13,0 10 5 17 9 WNW 1014,2 0,0
20.05.2019 10:00:00 18,5 12,0 10 6 18 10 NW 1013,9 0,0
20.05.2019 09:00:00 17,8 12,6 8 4 15 8 NW 1013,6 0,0
20.05.2019 08:00:00 17,1 13,7 6 3 9 5 WNW 1012,9 -
20.05.2019 07:00:00 17,3 13,7 0 0 9 5 N 1012,5 0,0
20.05.2019 06:00:00 17,5 13,7 2 1 15 8 NNW 1012,4 0,0
20.05.2019 05:00:00 18,0 14,3 7 4 19 10 NNW 1012,5 0,0
20.05.2019 04:00:00 17,9 15,2 8 4 15 8 NW 1012,8 0,0
20.05.2019 03:00:00 17,8 16,0 8 4 16 9 W 1013,4 0,0
20.05.2019 02:00:00 17,9 15,9 8 4 16 8 SW 1013,9 -
20.05.2019 01:00:00 18,0 16,0 10 6 18 10 SW 1014,2 0,0
20.05.2019 00:00:00 18,0 15,6 12 7 23 13 W 1014,5 0,0
19.05.2019 23:00:00 18,3 15,7 14 7 27 14 W 1014,2 0,0
19.05.2019 22:00:00 18,4 15,6 14 8 27 15 W 1014,1 0,0
19.05.2019 21:00:00 18,4 15,1 18 10 34 19 W 1013,8 0,0
19.05.2019 20:00:00 18,7 15,0 23 13 42 23 W 1013,4 -
19.05.2019 19:00:00 19,7 14,5 28 15 42 23 W 1013,6 0,0
19.05.2019 18:00:00 19,7 13,7 28 15 42 23 W 1013,9 0,0
19.05.2019 17:00:00 20,1 12,6 24 13 37 20 W 1014,2 0,0
19.05.2019 16:00:00 19,3 11,8 21 11 33 18 W 1014,9 0,0
19.05.2019 15:00:00 18,4 10,8 22 12 36 19 W 1015,0 0,0
19.05.2019 14:00:00 18,5 11,1 18 10 31 17 W 1015,0 -
19.05.2019 13:00:00 18,0 9,3 16 9 31 17 W 1015,4 0,0
19.05.2019 12:00:00 17,4 9,0 21 11 34 18 WNW 1015,6 0,0
19.05.2019 11:00:00 17,2 9,3 22 12 34 18 WNW 1015,4 0,0
19.05.2019 10:00:00 16,8 9,2 20 11 34 18 WNW 1015,3 0,0
19.05.2019 09:00:00 16,0 8,7 21 11 34 19 NW 1014,8 0,0
19.05.2019 08:00:00 16,1 9,6 16 9 30 16 NW 1014,6 -
19.05.2019 07:00:00 16,0 10,0 17 9 31 17 NW 1014,3 0,0
19.05.2019 06:00:00 16,4 10,5 17 9 35 19 NW 1014,2 0,0
19.05.2019 05:00:00 16,7 9,7 16 8 33 18 NW 1014,3 0,0
19.05.2019 04:00:00 17,0 10,4 18 10 36 19 NW 1014,3 0,0
19.05.2019 03:00:00 17,2 11,2 23 12 36 19 NW 1014,4 0,0
19.05.2019 02:00:00 18,3 9,4 17 9 37 20 NW 1014,8 -
19.05.2019 01:00:00 18,6 9,7 22 12 37 20 NW 1014,8 0,0
19.05.2019 00:00:00 19,1 11,7 17 9 26 14 NW 1014,9 0,0
18.05.2019 23:00:00 17,8 13,8 11 6 34 19 W 1014,8 0,0
18.05.2019 22:00:00 17,7 13,1 21 11 42 23 W 1014,5 0,0
18.05.2019 21:00:00 18,0 12,0 26 14 45 25 W 1014,4 0,0
18.05.2019 20:00:00 18,4 10,8 29 16 48 26 W 1014,0 -
18.05.2019 19:00:00 18,8 10,9 33 18 52 28 W 1014,0 0,0
18.05.2019 18:00:00 18,8 10,9 31 17 49 27 W 1013,9 0,0
18.05.2019 17:00:00 18,7 10,3 31 17 47 26 W 1014,0 0,0
18.05.2019 16:00:00 18,5 8,8 26 14 42 23 W 1014,6 0,0
18.05.2019 15:00:00 18,4 8,4 24 13 40 21 W 1014,7 0,0
18.05.2019 14:00:00 17,8 7,3 23 13 35 19 WNW 1015,0 -
18.05.2019 13:00:00 17,1 8,3 21 11 34 19 WNW 1015,4 0,0
18.05.2019 12:00:00 17,0 7,8 21 12 31 17 NW 1015,1 0,0
18.05.2019 11:00:00 16,8 7,4 16 8 27 15 NNW 1014,8 0,0
18.05.2019 10:00:00 16,5 8,3 15 8 29 16 NW 1014,7 0,0
18.05.2019 09:00:00 15,2 7,4 14 8 31 17 NNW 1014,2 0,0
18.05.2019 08:00:00 14,7 7,4 15 8 32 18 NNW 1013,9 -
18.05.2019 07:00:00 14,9 7,4 15 8 35 19 NNW 1013,4 0,0
18.05.2019 06:00:00 15,5 7,6 17 9 36 19 NW 1013,1 0,0
18.05.2019 05:00:00 16,0 7,7 14 7 30 16 NNW 1012,8 0,0
18.05.2019 04:00:00 16,7 7,6 17 9 34 19 NNW 1013,3 0,0
18.05.2019 03:00:00 17,4 7,7 13 7 33 18 NNW 1013,6 0,0
18.05.2019 02:00:00 18,4 8,7 15 8 36 19 NNW 1013,7 -
18.05.2019 01:00:00 19,1 13,1 17 9 27 15 WNW 1013,6 0,0
18.05.2019 00:00:00 17,8 14,5 17 9 33 18 W 1014,1 0,0
17.05.2019 23:00:00 17,7 13,5 22 12 37 20 W 1014,1 0,0
17.05.2019 22:00:00 17,5 12,2 22 12 39 21 W 1013,6 0,0
17.05.2019 21:00:00 17,8 11,6 26 14 46 25 W 1013,7 0,0
17.05.2019 20:00:00 18,8 10,9 29 16 47 26 W 1013,7 -
17.05.2019 19:00:00 18,6 10,2 27 14 43 23 W 1013,7 0,0
17.05.2019 18:00:00 19,2 10,2 30 16 46 25 W 1014,2 0,0
17.05.2019 17:00:00 19,2 10,2 31 17 44 24 W 1014,6 0,0
17.05.2019 16:00:00 18,9 9,4 22 12 40 21 W 1015,1 0,0
17.05.2019 15:00:00 18,7 8,7 20 11 36 19 W 1015,2 0,0
17.05.2019 14:00:00 17,8 7,8 19 11 32 18 W 1015,6 -

tt = temperature
td = dewpoint
ff = wind speed
fx = gusts
dd = wind direction
ppp = reduced air pressure
rr = precipitation

Next stations